Terminal Aerodrome Forecast
Issued by NWS

Home | Current Version | Previous Version | Text Only | Print | Product List | Glossary On
Versions: 1 2 3 4 5 6 7 8 9 10 11 12 13 14 15 16 17 18
000
FTUS43 KICT 230020 AAA
TAFRSL
TAF AMD
KRSL 230020Z 2300/2324 13011KT 5SM -DZ BR SCT005 OVC010
      TEMPO 2300/2304 2SM -DZ BR SCT003 BKN008
     FM230400 14009KT 2SM -DZ BR BKN003
     FM231200 14015KT 5SM -SHRA VCTS FEW003 SCT008 OVC010CB=

USA.gov is the U.S. government's official web portal to all federal, state and local government web resources and services.